This is the latest recevied weather packets stored in our database for station/object KO4DYK. If no packets are shown the sender has not sent any weather packets the latest 10 day(s).
| Time | Temp. | Humidity | Pressure | Rain* | Wind** | Luminosity | Snow |
|---|---|---|---|---|---|---|---|
| 1777139421 | 23.89° C | 74% | 1014.1 hPa | 0 mm | - | 465 W/m² | - |
| 1777139117 | 25° C | 69% | 1014.1 hPa | 0 mm | - | 328 W/m² | - |
| 1777138814 | 25.56° C | 70% | 1014.3 hPa | 0 mm | - | 273 W/m² | - |
| 1777138509 | 25° C | 70% | 1014.1 hPa | 0 mm | - | 439 W/m² | - |
| 1777138206 | 26.11° C | 68% | 1014.2 hPa | 0 mm | - | 446 W/m² | - |
| 1777137902 | 26.67° C | 66% | 1014.2 hPa | 0 mm | - | 738 W/m² | - |
| 1777137597 | 25° C | 71% | 1014.2 hPa | 0 mm | - | 924 W/m² | - |
| 1777137296 | 23.89° C | 76% | 1014.2 hPa | 0 mm | - | 877 W/m² | - |
| 1777136993 | 23.33° C | 78% | 1014.3 hPa | 0 mm | - | 254 W/m² | - |
| 1777136689 | 25° C | 74% | 1014.5 hPa | 0 mm | - | 280 W/m² | - |
| 1777136387 | 24.44° C | 72% | 1014.5 hPa | 0 mm | - | 534 W/m² | - |
| 1777136084 | 25.56° C | 69% | 1014.4 hPa | 0 mm | - | 395 W/m² | - |
| 1777135779 | 25.56° C | 71% | 1014.5 hPa | 0 mm | - | 881 W/m² | - |
| 1777135476 | 25.56° C | 70% | 1014.4 hPa | 0 mm | - | 901 W/m² | - |
| 1777135172 | 26.11° C | 68% | 1014.4 hPa | 0 mm | - | 343 W/m² | - |
| 1777134870 | 25.56° C | 72% | 1014.5 hPa | 0 mm | - | 872 W/m² | - |
| 1777134566 | 25° C | 73% | 1014.4 hPa | 0 mm | - | 907 W/m² | - |
| 1777134262 | 24.44° C | 76% | 1014.4 hPa | 0 mm | - | 898 W/m² | - |
| 1777133959 | 23.89° C | 79% | 1014.4 hPa | 0 mm | - | 767 W/m² | - |
| 1777133655 | 23.89° C | 79% | 1014.5 hPa | 0 mm | - | 835 W/m² | - |
| 1777133355 | 21.67° C | 89% | 1014.5 hPa | 0 mm | - | 862 W/m² | - |
| 1777133049 | 21.67° C | 87% | 1014.6 hPa | 0 mm | - | 676 W/m² | - |
| 1777132745 | 21.67° C | 88% | 1014.3 hPa | 0 mm | - | 750 W/m² | - |
| 1777132441 | 21.11° C | 90% | 1014.4 hPa | 0 mm | - | 772 W/m² | - |
| 1777132139 | 21.11° C | 92% | 1014.3 hPa | 0 mm | - | 718 W/m² | - |
* Rain latest hour (hover to see other rain measurements)
** Current wind speed in m/s (hover to see current wind gust speed)